createdAt,value
2023-02-18T00:00:06.667Z,15.93
2023-02-18T00:02:39.450Z,15.15
2023-02-18T00:05:09.775Z,15.48
2023-02-18T00:07:40.387Z,16.95
2023-02-18T00:10:12.993Z,12.93
2023-02-18T00:12:43.265Z,15.43
2023-02-18T00:15:16.496Z,13.82
2023-02-18T00:17:53.941Z,17.25
2023-02-18T00:20:24.046Z,16.35
2023-02-18T00:22:54.227Z,18.15
2023-02-18T00:25:24.673Z,14.35
2023-02-18T00:27:55.078Z,17.70
2023-02-18T00:30:25.387Z,15.85
2023-02-18T00:32:58.179Z,16.15
2023-02-18T00:35:28.227Z,13.77
2023-02-18T00:37:58.422Z,14.57
2023-02-18T00:40:28.549Z,17.00
2023-02-18T00:42:58.794Z,16.55
2023-02-18T00:45:28.919Z,16.85
2023-02-18T00:48:01.868Z,21.48
2023-02-18T00:50:32.013Z,15.77
2023-02-18T00:53:02.346Z,17.45
2023-02-18T00:55:32.456Z,18.63
2023-02-18T00:58:02.767Z,15.27
2023-02-18T01:00:33.035Z,16.17
2023-02-18T01:03:18.002Z,17.38
2023-02-18T01:05:50.232Z,16.65
2023-02-18T01:08:21.224Z,15.70
2023-02-18T01:13:22.139Z,17.92
2023-02-18T01:15:52.420Z,11.75
2023-02-18T01:18:26.002Z,14.75
2023-02-18T01:20:58.836Z,15.77
2023-02-18T01:23:29.153Z,15.18
2023-02-18T01:26:00.922Z,15.13
2023-02-18T01:28:31.254Z,10.15
2023-02-18T01:31:01.646Z,11.02
2023-02-18T01:33:34.350Z,12.68
2023-02-18T01:36:04.449Z,11.90
2023-02-18T01:38:34.825Z,11.88
2023-02-18T01:41:05.398Z,13.25
2023-02-18T01:43:36.154Z,11.65
2023-02-18T01:46:24.923Z,12.20
2023-02-18T01:49:01.682Z,11.93
2023-02-18T01:51:35.337Z,10.40
2023-02-18T01:54:09.518Z,12.35
2023-02-18T01:56:43.838Z,12.23
2023-02-18T01:59:17.363Z,9.68
2023-02-18T02:01:48.821Z,13.75
2023-02-18T02:04:21.704Z,12.50
2023-02-18T02:06:51.978Z,12.07
2023-02-18T02:09:25.421Z,10.80
2023-02-18T02:12:28.101Z,12.05
2023-02-18T02:15:16.192Z,13.65
2023-02-18T02:17:59.122Z,10.93
2023-02-18T02:21:04.924Z,10.18
2023-02-18T02:24:07.062Z,9.32
2023-02-18T02:27:15.889Z,9.52
2023-02-18T02:30:15.639Z,10.30
2023-02-18T02:33:18.232Z,10.57
2023-02-18T02:35:55.763Z,7.68
2023-02-18T02:38:33.949Z,10.43
2023-02-18T02:41:15.547Z,13.85
2023-02-18T02:43:52.639Z,10.60
2023-02-18T02:46:33.097Z,10.65
2023-02-18T02:49:07.371Z,9.45
2023-02-18T02:51:49.773Z,10.90
2023-02-18T02:54:24.726Z,10.10
2023-02-18T02:57:10.771Z,10.18
2023-02-18T02:59:46.191Z,7.80
2023-02-18T03:02:29.678Z,7.57
2023-02-18T03:05:13.715Z,8.55
2023-02-18T03:08:21.861Z,5.68
2023-02-18T03:11:00.120Z,8.18
2023-02-18T03:13:45.404Z,7.93
2023-02-18T03:16:25.019Z,7.18
2023-02-18T03:19:02.352Z,6.70
2023-02-18T03:21:36.064Z,6.40
2023-02-18T03:24:13.718Z,7.53
2023-02-18T03:29:18.798Z,6.28
2023-02-18T03:31:54.265Z,6.55
2023-02-18T03:34:29.478Z,6.22
2023-02-18T03:37:01.131Z,6.15
2023-02-18T03:39:37.165Z,5.88
2023-02-18T03:42:07.701Z,7.22
2023-02-18T03:44:38.069Z,5.25
2023-02-18T03:47:08.597Z,5.38
2023-02-18T03:49:38.876Z,5.88
2023-02-18T03:52:09.616Z,3.67
2023-02-18T03:54:42.470Z,4.57
2023-02-18T03:57:12.738Z,4.97
2023-02-18T03:59:46.199Z,4.75
2023-02-18T04:02:16.371Z,4.90
2023-02-18T04:04:46.395Z,3.63
2023-02-18T04:07:16.870Z,4.57
2023-02-18T04:09:49.563Z,2.97
2023-02-18T04:12:19.819Z,3.88
2023-02-18T04:14:50.026Z,4.75
2023-02-18T04:17:20.104Z,3.95
2023-02-18T04:19:50.141Z,4.45
2023-02-18T04:22:20.298Z,4.60
2023-02-18T04:24:53.090Z,3.63
2023-02-18T04:27:23.395Z,3.58
2023-02-18T04:29:53.699Z,4.93
2023-02-18T04:32:24.041Z,3.33
2023-02-18T04:34:54.141Z,3.80
2023-02-18T04:37:24.382Z,3.75
2023-02-18T04:39:57.026Z,4.60
2023-02-18T04:42:27.167Z,4.75
2023-02-18T04:44:57.383Z,5.25
2023-02-18T04:47:27.787Z,6.78
2023-02-18T04:49:58.128Z,8.25
2023-02-18T04:52:28.296Z,5.70
2023-02-18T04:55:08.830Z,6.47
2023-02-18T04:57:38.930Z,6.97
2023-02-18T05:00:12.969Z,6.22
2023-02-18T05:02:43.050Z,6.40
2023-02-18T05:05:13.500Z,5.32
2023-02-18T05:07:45.099Z,5.55
2023-02-18T05:10:20.800Z,5.45
2023-02-18T05:12:50.883Z,6.82
2023-02-18T05:15:21.137Z,5.97
2023-02-18T05:17:51.304Z,6.00
2023-02-18T05:20:21.866Z,5.82
2023-02-18T05:22:52.175Z,6.60
2023-02-18T05:25:25.048Z,5.38
2023-02-18T05:27:55.218Z,5.93
2023-02-18T05:30:25.359Z,4.05
2023-02-18T05:32:55.493Z,4.05
2023-02-18T05:35:25.583Z,4.63
2023-02-18T05:37:55.707Z,5.82
2023-02-18T05:40:28.598Z,5.38
2023-02-18T05:42:58.977Z,4.25
2023-02-18T05:45:29.228Z,4.10
2023-02-18T05:47:59.628Z,4.13
2023-02-18T05:50:29.735Z,7.07
2023-02-18T05:52:59.915Z,7.53
2023-02-18T05:55:33.320Z,8.52
2023-02-18T05:58:03.517Z,6.25
2023-02-18T06:00:33.752Z,7.15
2023-02-18T06:03:03.962Z,6.70
2023-02-18T06:05:34.045Z,6.70
2023-02-18T06:08:04.572Z,6.82
2023-02-18T06:10:46.493Z,6.93
2023-02-18T06:13:16.782Z,8.88
2023-02-18T06:15:46.996Z,7.18
2023-02-18T06:18:17.104Z,8.00
2023-02-18T06:20:47.205Z,6.32
2023-02-18T06:23:17.374Z,8.45
2023-02-18T06:25:52.334Z,4.43
2023-02-18T06:28:22.612Z,4.70
2023-02-18T06:30:52.868Z,7.20
2023-02-18T06:33:22.987Z,8.52
2023-02-18T06:35:58.150Z,5.90
2023-02-18T06:38:28.551Z,7.22
2023-02-18T06:41:01.250Z,7.93
2023-02-18T06:43:31.482Z,3.47
2023-02-18T06:46:01.741Z,9.07
2023-02-18T06:48:32.308Z,4.72
2023-02-18T06:51:02.845Z,5.53
2023-02-18T06:53:33.186Z,6.47
2023-02-18T06:56:06.017Z,6.03
2023-02-18T06:58:36.524Z,8.30
2023-02-18T07:01:07.015Z,8.90
2023-02-18T07:03:37.633Z,6.70
2023-02-18T07:06:08.726Z,6.07
2023-02-18T07:08:39.327Z,5.35
2023-02-18T07:11:11.936Z,6.13
2023-02-18T07:13:42.024Z,8.02
2023-02-18T07:16:12.310Z,7.55
2023-02-18T07:18:42.827Z,11.57
2023-02-18T07:21:12.925Z,7.05
2023-02-18T07:23:43.962Z,6.95
2023-02-18T07:26:17.959Z,4.40
2023-02-18T07:28:48.325Z,8.90
2023-02-18T07:31:18.598Z,7.78
2023-02-18T07:33:48.765Z,7.65
2023-02-18T07:36:18.873Z,7.45
2023-02-18T07:38:49.454Z,5.07
2023-02-18T07:41:24.360Z,6.13
2023-02-18T07:43:54.540Z,5.45
2023-02-18T07:46:24.849Z,4.00
2023-02-18T07:48:55.159Z,7.35
2023-02-18T07:51:25.197Z,3.85
2023-02-18T07:53:55.534Z,8.02
2023-02-18T07:56:34.482Z,9.20
2023-02-18T07:59:04.865Z,8.55
2023-02-18T08:01:34.911Z,7.65
2023-02-18T08:04:05.302Z,7.13
2023-02-18T08:06:38.484Z,7.82
2023-02-18T08:09:09.302Z,5.60
2023-02-18T08:11:44.460Z,7.78
2023-02-18T08:14:15.307Z,5.32
2023-02-18T08:16:45.462Z,3.13
2023-02-18T08:19:15.654Z,5.78
2023-02-18T08:21:46.073Z,6.57
2023-02-18T08:24:16.191Z,6.63
2023-02-18T08:27:00.303Z,5.03
2023-02-18T08:29:31.179Z,5.65
2023-02-18T08:32:02.678Z,6.85
2023-02-18T08:34:33.120Z,6.95
2023-02-18T08:37:05.099Z,6.63
2023-02-18T08:39:39.962Z,2.55
2023-02-18T08:42:13.138Z,4.93
2023-02-18T08:44:43.370Z,3.63
2023-02-18T08:48:16.816Z,5.78
2023-02-18T08:50:03.722Z,9.27
2023-02-18T08:52:34.072Z,4.97
2023-02-18T08:55:04.427Z,8.40
2023-02-18T08:57:37.212Z,6.22
2023-02-18T09:00:08.807Z,3.28
2023-02-18T09:02:39.102Z,6.45
2023-02-18T09:05:17.059Z,5.53
2023-02-18T09:07:50.629Z,8.05
2023-02-18T09:10:21.149Z,6.60
2023-02-18T09:12:53.841Z,10.10
2023-02-18T09:15:24.010Z,1.63
2023-02-18T09:17:54.130Z,6.20
2023-02-18T09:20:24.450Z,4.60
2023-02-18T09:22:54.707Z,5.10
2023-02-18T09:25:27.916Z,6.03
2023-02-18T09:28:08.143Z,7.13
2023-02-18T09:30:38.587Z,3.30
2023-02-18T09:33:08.790Z,5.38
2023-02-18T09:35:42.745Z,5.32
2023-02-18T09:38:13.290Z,4.20
2023-02-18T09:40:47.269Z,4.57
2023-02-18T09:43:30.878Z,5.03
2023-02-18T09:46:04.410Z,5.70
2023-02-18T09:48:37.991Z,4.40
2023-02-18T09:51:08.926Z,5.57
2023-02-18T09:53:39.399Z,3.75
2023-02-18T09:56:10.079Z,3.72
2023-02-18T09:58:43.858Z,4.88
2023-02-18T10:01:23.164Z,4.70
2023-02-18T10:03:55.684Z,6.10
2023-02-18T10:06:29.096Z,3.42
2023-02-18T10:09:00.031Z,7.63
2023-02-18T10:14:06.072Z,5.47
2023-02-18T10:16:36.255Z,9.55
2023-02-18T10:19:15.844Z,5.22
2023-02-18T10:21:46.735Z,4.30
2023-02-18T10:24:28.874Z,5.43
2023-02-18T10:26:59.120Z,5.63
2023-02-18T10:29:32.589Z,6.47
2023-02-18T10:32:10.259Z,6.45
2023-02-18T10:34:45.140Z,4.32
2023-02-18T10:37:31.472Z,10.45
2023-02-18T10:40:12.171Z,6.63
2023-02-18T10:42:52.253Z,7.25
2023-02-18T10:45:36.714Z,8.75
2023-02-18T10:48:32.271Z,8.20
2023-02-18T10:51:06.020Z,10.00
2023-02-18T10:56:48.567Z,8.02
2023-02-18T10:59:24.252Z,8.25
2023-02-18T11:02:02.110Z,9.77
2023-02-18T11:04:50.148Z,7.93
2023-02-18T11:07:25.098Z,8.70
2023-02-18T11:09:57.452Z,7.38
2023-02-18T11:12:31.087Z,8.45
2023-02-18T11:15:20.201Z,8.82
2023-02-18T11:17:55.007Z,5.80
2023-02-18T11:20:35.166Z,6.30
2023-02-18T11:23:22.194Z,7.53
2023-02-18T11:26:03.587Z,10.57
2023-02-18T11:28:45.695Z,8.32
2023-02-18T11:31:23.803Z,8.13
2023-02-18T11:33:59.919Z,6.80
2023-02-18T11:36:42.936Z,4.88
2023-02-18T11:39:24.628Z,4.88
2023-02-18T11:41:59.711Z,4.65
2023-02-18T11:44:34.531Z,4.47
2023-02-18T11:47:06.551Z,6.25
2023-02-18T11:49:39.382Z,6.68
2023-02-18T11:52:19.927Z,5.47
2023-02-18T11:55:04.749Z,9.38
2023-02-18T11:57:36.794Z,6.15
2023-02-18T12:00:08.587Z,7.90
2023-02-18T12:02:41.188Z,8.57
2023-02-18T12:05:21.537Z,5.45
2023-02-18T12:07:54.195Z,4.82
2023-02-18T12:10:30.446Z,5.97
2023-02-18T12:13:05.522Z,5.65
2023-02-18T12:15:44.830Z,6.65
2023-02-18T12:18:51.096Z,7.07
2023-02-18T12:21:40.889Z,8.73
2023-02-18T12:24:23.164Z,7.45
2023-02-18T12:27:03.638Z,8.15
2023-02-18T12:29:53.491Z,5.22
2023-02-18T12:32:32.973Z,5.65
2023-02-18T12:35:22.095Z,3.30
2023-02-18T12:38:21.441Z,7.95
2023-02-18T12:41:10.787Z,9.52
2023-02-18T12:43:55.438Z,6.38
2023-02-18T12:46:42.409Z,8.50
2023-02-18T12:49:43.795Z,6.32
2023-02-18T12:52:25.213Z,6.30
2023-02-18T12:55:26.655Z,6.47
2023-02-18T12:58:07.901Z,11.07
2023-02-18T13:00:56.992Z,9.02
2023-02-18T13:04:04.178Z,8.95
2023-02-18T13:07:11.613Z,7.10
2023-02-18T13:09:53.378Z,11.30
2023-02-18T13:12:32.883Z,12.00
2023-02-18T13:15:09.397Z,11.60
2023-02-18T13:17:42.568Z,9.00
2023-02-18T13:20:17.444Z,11.57
2023-02-18T13:22:50.242Z,8.68
2023-02-18T13:25:22.612Z,11.70
2023-02-18T13:28:07.355Z,9.75
2023-02-18T13:30:41.442Z,4.90
2023-02-18T13:33:19.651Z,8.93
2023-02-18T13:35:55.416Z,11.38
2023-02-18T13:38:51.402Z,7.72
2023-02-18T13:41:24.918Z,8.35
2023-02-18T13:43:57.720Z,10.35
2023-02-18T13:46:28.531Z,9.02
2023-02-18T13:49:12.305Z,7.50
2023-02-18T13:51:45.234Z,8.95
2023-02-18T13:54:28.068Z,13.55
2023-02-18T13:57:03.803Z,10.75
2023-02-18T13:59:39.370Z,10.25
2023-02-18T14:02:37.252Z,9.82
2023-02-18T14:05:25.523Z,8.55
2023-02-18T14:08:06.278Z,10.40
2023-02-18T14:10:38.271Z,10.23
2023-02-18T14:13:26.331Z,10.18
2023-02-18T14:16:01.515Z,10.20
2023-02-18T14:18:53.198Z,8.45
2023-02-18T14:21:37.894Z,9.57
2023-02-18T14:24:15.589Z,9.07
2023-02-18T14:26:51.514Z,13.80
2023-02-18T14:29:30.349Z,9.55
2023-02-18T14:32:05.296Z,11.63
2023-02-18T14:34:59.521Z,12.15
2023-02-18T14:38:09.747Z,12.52
2023-02-18T14:41:01.866Z,10.38
2023-02-18T14:44:01.809Z,14.10
2023-02-18T14:46:42.885Z,10.65
2023-02-18T14:49:29.582Z,8.40
2023-02-18T14:52:02.944Z,11.90
2023-02-18T14:54:34.276Z,10.77
2023-02-18T14:57:09.678Z,11.57
2023-02-18T14:59:43.600Z,11.98
2023-02-18T15:02:22.497Z,12.07
2023-02-18T15:04:52.932Z,12.07
2023-02-18T15:07:26.140Z,20.80
2023-02-18T15:09:57.740Z,10.45
2023-02-18T15:12:30.645Z,8.88
2023-02-18T15:15:05.720Z,7.72
2023-02-18T15:17:36.124Z,11.75
2023-02-18T15:20:09.651Z,5.57
2023-02-18T15:22:43.353Z,9.15
2023-02-18T15:25:26.533Z,7.03
2023-02-18T15:27:57.622Z,6.82
2023-02-18T15:30:31.166Z,10.38
2023-02-18T15:33:03.525Z,8.38
2023-02-18T15:35:35.934Z,7.68
2023-02-18T15:38:08.940Z,9.15
2023-02-18T15:40:41.264Z,6.43
2023-02-18T15:43:13.518Z,7.40
2023-02-18T15:45:46.775Z,5.60
2023-02-18T15:48:27.685Z,8.40
2023-02-18T15:51:08.128Z,5.40
2023-02-18T15:53:51.007Z,7.85
2023-02-18T15:56:34.757Z,6.05
2023-02-18T15:59:12.668Z,7.75
2023-02-18T16:01:43.158Z,10.85
2023-02-18T16:04:17.971Z,9.02
2023-02-18T16:06:50.378Z,6.53
2023-02-18T16:09:27.212Z,10.63
2023-02-18T16:12:02.245Z,8.10
2023-02-18T16:14:35.852Z,9.27
2023-02-18T16:17:12.665Z,10.80
2023-02-18T16:20:03.379Z,8.98
2023-02-18T16:22:39.192Z,9.98
2023-02-18T16:25:20.464Z,15.00
2023-02-18T16:27:55.387Z,10.38
2023-02-18T16:30:28.972Z,12.80
2023-02-18T16:33:00.685Z,8.23
2023-02-18T16:35:47.456Z,9.52
2023-02-18T16:38:21.093Z,12.93
2023-02-18T16:40:54.971Z,11.43
2023-02-18T16:43:27.518Z,8.20
2023-02-18T16:46:00.480Z,6.22
2023-02-18T16:48:35.540Z,6.15
2023-02-18T16:51:08.082Z,7.22
2023-02-18T16:53:38.353Z,8.10
2023-02-18T16:56:18.083Z,7.35
2023-02-18T16:58:48.459Z,9.15
2023-02-18T17:01:28.856Z,7.78
2023-02-18T17:03:59.644Z,6.82
2023-02-18T17:06:30.329Z,14.23
2023-02-18T17:09:00.836Z,10.23
2023-02-18T17:11:35.686Z,7.88
2023-02-18T17:14:06.387Z,8.90
2023-02-18T17:16:36.491Z,10.13
2023-02-18T17:19:06.620Z,9.25
2023-02-18T17:21:36.828Z,8.77
2023-02-18T17:24:07.690Z,8.82
2023-02-18T17:26:40.396Z,10.68
2023-02-18T17:29:10.782Z,10.18
2023-02-18T17:31:44.824Z,9.57
2023-02-18T17:34:18.562Z,8.85
2023-02-18T17:36:48.647Z,6.63
2023-02-18T17:39:21.026Z,10.80
2023-02-18T17:41:53.858Z,11.48
2023-02-18T17:44:26.195Z,10.15
2023-02-18T17:46:56.295Z,10.73
2023-02-18T17:49:26.334Z,13.20
2023-02-18T17:51:58.091Z,12.88
2023-02-18T17:54:28.765Z,10.85
2023-02-18T17:57:01.549Z,9.82
2023-02-18T17:59:31.824Z,9.10
2023-02-18T18:02:02.249Z,9.88
2023-02-18T18:04:32.381Z,13.60
2023-02-18T18:07:02.624Z,7.68
2023-02-18T18:09:32.966Z,9.55
2023-02-18T18:12:06.014Z,10.55
2023-02-18T18:14:36.148Z,14.75
2023-02-18T18:17:06.296Z,13.30
2023-02-18T18:19:38.167Z,10.13
2023-02-18T18:22:08.314Z,7.13
2023-02-18T18:24:38.466Z,7.95
2023-02-18T18:27:13.768Z,12.02
2023-02-18T18:29:43.852Z,13.45
2023-02-18T18:32:14.074Z,9.18
2023-02-18T18:34:44.424Z,11.50
2023-02-18T18:37:14.914Z,11.50
2023-02-18T18:39:45.056Z,13.10
2023-02-18T18:42:17.894Z,9.98
2023-02-18T18:44:48.057Z,9.73
2023-02-18T18:47:18.178Z,8.52
2023-02-18T18:49:48.186Z,8.82
2023-02-18T18:52:23.997Z,7.13
2023-02-18T18:54:54.047Z,7.68
2023-02-18T18:57:27.686Z,11.52
2023-02-18T18:59:57.927Z,9.05
2023-02-18T19:02:28.683Z,10.63
2023-02-18T19:04:58.996Z,9.98
2023-02-18T19:07:29.201Z,10.10
2023-02-18T19:09:59.420Z,9.13
2023-02-18T19:12:32.458Z,12.63
2023-02-18T19:15:02.791Z,9.18
2023-02-18T19:17:32.950Z,12.07
2023-02-18T19:20:03.033Z,9.88
2023-02-18T19:22:33.253Z,9.35
2023-02-18T19:25:03.920Z,8.98
2023-02-18T19:27:40.425Z,12.02
2023-02-18T19:30:12.514Z,11.50
2023-02-18T19:32:42.639Z,11.45
2023-02-18T19:35:13.212Z,12.73
2023-02-18T19:37:43.635Z,11.30
2023-02-18T19:40:16.613Z,9.68
2023-02-18T19:42:50.238Z,12.05
2023-02-18T19:45:21.465Z,13.48
2023-02-18T19:47:56.839Z,18.35
2023-02-18T19:50:31.065Z,13.48
2023-02-18T19:53:02.215Z,12.52
2023-02-18T19:55:32.447Z,15.43
2023-02-18T19:58:06.457Z,14.13
2023-02-18T20:00:36.765Z,13.43
2023-02-18T20:03:07.096Z,16.08
2023-02-18T20:05:40.934Z,16.48
2023-02-18T20:08:11.267Z,16.52
2023-02-18T20:10:41.512Z,12.50
2023-02-18T20:13:14.418Z,18.15
2023-02-18T20:15:44.841Z,13.48
2023-02-18T20:18:15.026Z,15.80
2023-02-18T20:20:50.413Z,15.48
2023-02-18T20:23:21.328Z,12.60
2023-02-18T20:25:51.436Z,16.13
2023-02-18T20:28:24.337Z,19.27
2023-02-18T20:31:05.722Z,17.73
2023-02-18T20:33:36.035Z,20.33
2023-02-18T20:36:08.670Z,17.92
2023-02-18T20:38:39.865Z,20.42
2023-02-18T20:41:11.761Z,16.88
2023-02-18T20:43:44.797Z,15.07
2023-02-18T20:46:17.939Z,16.33
2023-02-18T20:48:49.787Z,17.65
2023-02-18T20:51:22.079Z,17.60
2023-02-18T20:53:53.485Z,16.05
2023-02-18T20:56:24.629Z,12.23
2023-02-18T20:58:57.393Z,13.45
2023-02-18T21:01:27.461Z,12.75
2023-02-18T21:03:57.741Z,15.70
2023-02-18T21:06:28.698Z,16.58
2023-02-18T21:08:58.998Z,16.20
2023-02-18T21:11:30.048Z,17.95
2023-02-18T21:16:38.674Z,19.20
2023-02-18T21:19:09.319Z,20.33
2023-02-18T21:21:39.802Z,20.20
2023-02-18T21:24:10.374Z,19.67
2023-02-18T21:26:40.704Z,23.77
2023-02-18T21:29:15.645Z,24.80
2023-02-18T21:31:51.750Z,26.45
2023-02-18T21:34:23.128Z,27.00
2023-02-18T21:36:53.456Z,27.83
2023-02-18T21:39:23.540Z,26.48
2023-02-18T21:41:53.759Z,22.33
2023-02-18T21:44:40.170Z,20.50
2023-02-18T21:47:11.841Z,17.10
2023-02-18T21:49:42.252Z,20.92
2023-02-18T21:52:12.310Z,18.77
2023-02-18T21:54:44.765Z,20.10
2023-02-18T21:57:18.001Z,19.42
2023-02-18T21:59:51.073Z,20.85
2023-02-18T22:02:22.940Z,20.73
2023-02-18T22:04:54.073Z,20.13
2023-02-18T22:12:26.822Z,20.40
2023-02-18T22:14:59.597Z,20.25
2023-02-18T22:17:33.278Z,21.42
2023-02-18T22:20:05.499Z,21.77
2023-02-18T22:22:37.328Z,19.25
2023-02-18T22:25:08.600Z,21.60
2023-02-18T22:27:39.030Z,18.17
2023-02-18T22:30:13.263Z,18.30
2023-02-18T22:32:43.510Z,15.75
2023-02-18T22:35:15.653Z,18.98
2023-02-18T22:37:46.836Z,15.30
2023-02-18T22:40:16.970Z,15.82
2023-02-18T22:42:47.237Z,14.52
2023-02-18T22:45:20.127Z,17.30
2023-02-18T22:47:50.216Z,16.92
2023-02-18T22:50:20.680Z,17.13
2023-02-18T22:52:51.043Z,13.68
2023-02-18T22:55:27.286Z,18.70
2023-02-18T22:57:57.564Z,14.93
2023-02-18T23:00:30.889Z,14.00
2023-02-18T23:03:01.009Z,15.05
2023-02-18T23:05:31.086Z,14.55
2023-02-18T23:08:01.268Z,12.90
2023-02-18T23:10:31.379Z,16.98
2023-02-18T23:13:01.758Z,14.65
2023-02-18T23:15:34.512Z,12.82
2023-02-18T23:18:05.079Z,12.27
2023-02-18T23:20:47.568Z,12.48
2023-02-18T23:23:17.697Z,13.32
2023-02-18T23:25:47.885Z,10.98
2023-02-18T23:28:18.228Z,15.43
2023-02-18T23:30:50.938Z,11.73
2023-02-18T23:33:21.427Z,13.45
2023-02-18T23:35:51.596Z,13.75
2023-02-18T23:38:21.653Z,11.63
2023-02-18T23:40:52.027Z,13.60
2023-02-18T23:43:22.125Z,11.57
2023-02-18T23:45:55.052Z,15.85
2023-02-18T23:48:25.226Z,10.38
2023-02-18T23:51:03.214Z,16.13
2023-02-18T23:53:34.896Z,12.98
2023-02-18T23:56:09.319Z,12.02
2023-02-18T23:58:39.614Z,13.80
